Time;durP1;ratioP1;P1;durP2;ratioP2;P2;SDS_P1;SDS_P2;PMS_P1;PMS_P2;Temp;Humidity;BMP_temperature;BMP_pressure;BME280_temperature;BME280_humidity;BME280_pressure;Samples;Min_cycle;Max_cycle;Signal;HPM_P1;HPM_P2
2021/12/14 00:01:31;;;;;;;14.70;10.45;;;5.50;96.70;;;;;;4950807;28;20555;-70
2021/12/14 00:04:03;;;;;;;14.73;10.60;;;5.50;96.70;;;;;;4953204;28;20050;-70
2021/12/14 00:06:34;;;;;;;15.30;11.32;;;5.50;96.70;;;;;;4955718;28;20058;-70
2021/12/14 00:09:05;;;;;;;16.30;10.32;;;5.60;96.70;;;;;;4958104;28;20535;-70
2021/12/14 00:16:50;;;;;;;17.33;11.02;;;5.60;96.70;;;;;;4951212;28;20082;-70
2021/12/14 00:19:19;;;;;;;15.73;10.60;;;5.50;96.70;;;;;;4955740;28;20034;-70
2021/12/14 00:21:52;;;;;;;16.42;11.27;;;5.60;96.70;;;;;;4956906;28;20489;-69
2021/12/14 00:24:22;;;;;;;20.65;11.20;;;5.70;96.70;;;;;;4953181;28;20071;-70
2021/12/14 00:26:58;;;;;;;20.23;13.27;;;5.60;96.70;;;;;;4954292;28;20054;-70
2021/12/14 00:29:30;;;;;;;17.60;11.10;;;5.60;96.70;;;;;;4955353;28;20225;-69
2021/12/14 00:32:00;;;;;;;17.20;11.65;;;5.70;96.70;;;;;;4955776;28;20045;-70
2021/12/14 00:34:41;;;;;;;18.77;12.82;;;5.70;96.70;;;;;;4951710;28;20279;-69
2021/12/14 00:37:16;;;;;;;18.40;11.98;;;5.60;96.70;;;;;;4957698;28;20515;-70
2021/12/14 00:39:46;;;;;;;18.73;12.38;;;5.50;96.70;;;;;;4956022;28;20062;-70
2021/12/14 00:42:14;;;;;;;17.88;11.57;;;5.40;96.70;;;;;;4949763;28;20114;-70
2021/12/14 00:44:43;;;;;;;16.55;10.98;;;5.50;96.70;;;;;;4940359;28;20063;-70
2021/12/14 00:47:11;;;;;;;15.95;10.85;;;5.50;96.70;;;;;;4951857;28;20051;-69
2021/12/14 00:49:40;;;;;;;16.85;10.60;;;5.40;96.70;;;;;;4955577;28;20046;-70
2021/12/14 00:52:10;;;;;;;14.57;10.50;;;5.40;96.70;;;;;;4941876;28;20786;-70
2021/12/14 00:54:40;;;;;;;15.68;10.05;;;5.30;96.70;;;;;;4953510;28;20038;-70
2021/12/14 00:57:09;;;;;;;17.75;10.20;;;5.20;96.70;;;;;;4952533;28;20047;-70
2021/12/14 00:59:38;;;;;;;14.65;9.80;;;5.20;96.70;;;;;;4936269;28;20063;-70
2021/12/14 01:02:12;;;;;;;15.88;9.82;;;5.30;96.70;;;;;;4935939;28;21853;-70
2021/12/14 01:04:44;;;;;;;13.93;9.40;;;5.30;96.70;;;;;;4930529;28;20048;-69
2021/12/14 01:07:17;;;;;;;15.18;9.32;;;5.40;96.70;;;;;;4917585;29;20094;-70
2021/12/14 01:09:49;;;;;;;12.02;9.30;;;5.30;96.70;;;;;;4934673;29;20205;-70
2021/12/14 01:12:29;;;;;;;14.13;9.77;;;5.30;96.70;;;;;;4949889;28;20134;-70
2021/12/14 01:15:22;;;;;;;14.85;9.52;;;5.30;96.70;;;;;;4935443;28;20417;-70
2021/12/14 01:18:01;;;;;;;16.10;9.85;;;5.30;96.70;;;;;;4945963;28;20139;-70
2021/12/14 01:20:38;;;;;;;12.68;8.88;;;5.20;96.70;;;;;;4936952;28;20130;-70
2021/12/14 01:23:16;;;;;;;;;;;5.10;96.70;;;;;;4938490;29;20054;-69
2021/12/14 01:25:48;;;;;;;15.15;9.82;;;5.10;96.70;;;;;;4950971;28;19933;-70
2021/12/14 01:28:21;;;;;;;12.13;9.35;;;4.90;96.70;;;;;;4931714;28;20551;-70
2021/12/14 01:31:03;;;;;;;12.10;9.85;;;4.80;96.70;;;;;;4938458;28;20043;-70
2021/12/14 01:33:33;;;;;;;13.02;8.23;;;4.80;96.70;;;;;;4932648;29;20445;-69
2021/12/14 01:36:09;;;;;;;13.57;9.57;;;4.80;96.70;;;;;;4919170;29;20737;-69
2021/12/14 01:38:48;;;;;;;11.00;9.13;;;4.90;96.70;;;;;;4933464;28;20051;-69
2021/12/14 01:41:17;;;;;;;12.73;9.43;;;4.80;96.70;;;;;;4915296;29;20050;-70
2021/12/14 01:43:49;;;;;;;11.77;8.43;;;4.80;96.70;;;;;;4924053;29;20577;-69
2021/12/14 01:46:25;;;;;;;12.45;8.90;;;4.90;96.70;;;;;;4939529;28;20589;-69
2021/12/14 01:49:16;;;;;;;13.63;8.73;;;4.90;96.70;;;;;;4936609;28;20134;-69
2021/12/14 01:51:54;;;;;;;13.63;9.10;;;4.90;96.70;;;;;;4931723;28;20054;-69
2021/12/14 01:54:31;;;;;;;11.63;8.88;;;5.00;96.70;;;;;;4931560;28;20512;-69
2021/12/14 01:57:03;;;;;;;11.35;8.38;;;5.00;96.70;;;;;;4936489;29;20082;-69
2021/12/14 01:59:38;;;;;;;13.25;9.60;;;5.00;96.70;;;;;;4932505;28;20534;-69
2021/12/14 02:02:34;;;;;;;13.98;8.68;;;5.00;96.70;;;;;;4950516;28;20405;-69
2021/12/14 02:05:06;;;;;;;15.18;9.20;;;5.00;96.70;;;;;;4954393;28;20057;-69
2021/12/14 02:07:36;;;;;;;13.10;9.07;;;4.90;96.70;;;;;;4950187;28;20049;-69
2021/12/14 02:10:12;;;;;;;11.43;8.40;;;4.90;96.70;;;;;;4953789;28;20165;-69
2021/12/14 02:12:43;;;;;;;12.70;8.77;;;4.90;96.70;;;;;;4952651;28;20058;-69
2021/12/14 02:15:15;;;;;;;11.68;8.98;;;4.90;96.70;;;;;;4951826;28;20627;-69
2021/12/14 02:17:47;;;;;;;12.73;8.30;;;4.90;96.70;;;;;;4954324;28;20053;-69
2021/12/14 02:20:21;;;;;;;13.00;8.55;;;4.90;96.70;;;;;;4955678;28;20062;-69
2021/12/14 02:22:52;;;;;;;15.05;9.18;;;4.90;96.70;;;;;;4933870;28;20051;-69
2021/12/14 02:25:21;;;;;;;13.73;9.52;;;4.90;96.70;;;;;;4948674;28;20043;-69
2021/12/14 02:27:51;;;;;;;13.50;8.98;;;4.90;96.70;;;;;;4950697;28;20698;-68
2021/12/14 02:30:27;;;;;;;12.40;7.75;;;4.90;96.70;;;;;;4948093;28;20566;-69
2021/12/14 02:32:57;;;;;;;12.23;8.57;;;4.80;96.70;;;;;;4940728;28;20161;-69
2021/12/14 02:35:28;;;;;;;12.57;8.13;;;4.70;96.70;;;;;;4949093;28;20527;-69
2021/12/14 02:37:59;;;;;;;11.38;7.95;;;4.70;96.70;;;;;;4952350;28;20516;-69
2021/12/14 02:40:53;;;;;;;12.18;7.97;;;4.80;96.70;;;;;;4931499;28;20058;-69
2021/12/14 02:43:32;;;;;;;11.35;7.55;;;4.80;96.70;;;;;;4950842;28;20043;-69
2021/12/14 02:46:10;;;;;;;12.75;8.60;;;4.70;96.70;;;;;;4948519;28;20505;-69
2021/12/14 02:48:41;;;;;;;10.88;7.38;;;4.70;96.70;;;;;;4932877;28;20046;-69
2021/12/14 02:51:13;;;;;;;11.85;7.95;;;4.70;96.70;;;;;;4949138;28;20038;-68
2021/12/14 02:53:48;;;;;;;10.95;7.43;;;4.70;96.70;;;;;;4952302;28;20501;-69
2021/12/14 02:56:22;;;;;;;10.50;7.85;;;4.70;96.70;;;;;;4951701;28;20039;-69
2021/12/14 02:58:56;;;;;;;10.65;7.60;;;4.70;96.70;;;;;;4949322;28;20137;-69
2021/12/14 03:01:25;;;;;;;12.32;7.38;;;4.70;96.70;;;;;;4949267;28;20058;-69
2021/12/14 03:03:58;;;;;;;11.13;7.22;;;4.60;96.70;;;;;;4954350;28;20083;-69
2021/12/14 03:06:27;;;;;;;12.65;7.53;;;4.60;96.70;;;;;;4936315;28;20272;-69
2021/12/14 03:09:09;;;;;;;10.80;6.97;;;4.50;96.70;;;;;;4950288;28;20049;-69
2021/12/14 03:11:38;;;;;;;10.20;7.57;;;4.60;96.70;;;;;;4952739;28;20059;-69
2021/12/14 03:14:06;;;;;;;12.73;7.90;;;4.50;96.70;;;;;;4952343;28;21240;-69
2021/12/14 03:16:38;;;;;;;10.13;7.05;;;4.50;96.70;;;;;;4956657;28;20117;-69
2021/12/14 03:19:08;;;;;;;11.57;7.82;;;4.50;96.70;;;;;;4951119;28;20524;-69
2021/12/14 03:21:39;;;;;;;11.93;7.70;;;4.50;96.70;;;;;;4950917;28;20516;-69
2021/12/14 03:24:13;;;;;;;10.45;7.00;;;4.40;96.70;;;;;;4951935;28;20227;-69
2021/12/14 03:26:44;;;;;;;10.57;7.53;;;4.40;96.70;;;;;;4957647;28;20057;-69
2021/12/14 03:29:16;;;;;;;9.93;7.32;;;4.50;96.70;;;;;;4949047;28;20410;-69
2021/12/14 03:31:49;;;;;;;9.07;6.65;;;4.40;96.70;;;;;;4946049;28;20142;-69
2021/12/14 03:34:28;;;;;;;10.70;7.25;;;4.40;96.70;;;;;;4953565;28;20051;-69
2021/12/14 03:36:59;;;;;;;10.02;6.65;;;4.50;96.70;;;;;;4957929;28;20644;-70
2021/12/14 03:39:36;;;;;;;9.52;6.90;;;4.50;96.70;;;;;;4954509;28;20042;-70
2021/12/14 03:42:11;;;;;;;10.13;6.93;;;4.50;96.70;;;;;;4954897;28;20572;-70
2021/12/14 03:44:43;;;;;;;8.00;6.15;;;4.40;96.70;;;;;;4960711;28;20047;-70
2021/12/14 03:47:15;;;;;;;11.27;6.70;;;4.40;96.70;;;;;;4957195;28;20074;-70
2021/12/14 03:49:47;;;;;;;10.20;6.28;;;4.40;96.70;;;;;;4955739;28;20066;-70
2021/12/14 03:52:19;;;;;;;10.70;6.90;;;4.40;96.70;;;;;;4956809;28;20047;-70
2021/12/14 03:54:51;;;;;;;9.45;6.95;;;4.30;96.70;;;;;;4952705;28;20141;-70
2021/12/14 03:57:20;;;;;;;10.45;7.28;;;4.10;96.70;;;;;;4955976;28;20125;-70
2021/12/14 03:59:50;;;;;;;11.57;7.10;;;4.10;96.70;;;;;;4962749;28;20041;-70
2021/12/14 04:02:19;;;;;;;9.27;6.65;;;4.10;96.70;;;;;;4957042;28;20428;-70
2021/12/14 04:04:57;;;;;;;11.38;6.90;;;4.00;96.70;;;;;;4938381;28;20412;-70
2021/12/14 04:07:25;;;;;;;11.18;6.95;;;3.90;96.70;;;;;;4962511;28;20421;-70
2021/12/14 04:10:11;;;;;;;10.13;6.68;;;4.00;96.70;;;;;;4958487;28;20053;-70
2021/12/14 04:12:39;;;;;;;9.20;6.35;;;4.10;96.70;;;;;;4973065;28;20689;-70
2021/12/14 04:15:09;;;;;;;10.27;6.68;;;4.10;96.70;;;;;;4987732;23;20524;-70
2021/12/14 04:17:39;;;;;;;11.25;6.55;;;4.10;96.70;;;;;;4958988;28;20043;-70
2021/12/14 04:20:14;;;;;;;11.38;7.35;;;4.20;96.70;;;;;;4954769;28;20973;-70
2021/12/14 04:22:48;;;;;;;9.20;6.55;;;4.10;96.70;;;;;;4955691;28;20376;-70
2021/12/14 04:25:24;;;;;;;8.57;6.35;;;4.00;96.70;;;;;;4950214;28;20141;-70
2021/12/14 04:27:55;;;;;;;8.88;6.78;;;4.00;96.70;;;;;;4959656;28;20055;-70
2021/12/14 04:30:27;;;;;;;10.27;7.60;;;3.90;96.70;;;;;;4937629;28;20054;-70
2021/12/14 04:32:59;;;;;;;9.25;7.05;;;3.90;96.70;;;;;;4940053;28;20174;-70
2021/12/14 04:35:32;;;;;;;10.63;6.63;;;4.00;96.70;;;;;;4953142;28;20501;-70
2021/12/14 04:38:09;;;;;;;9.52;6.80;;;4.10;96.70;;;;;;4953930;28;20094;-70
2021/12/14 04:52:00;;;;;;;7.55;5.70;;;4.00;96.70;;;;;;4956216;28;20081;-70
2021/12/14 04:54:36;;;;;;;8.77;6.90;;;4.00;96.70;;;;;;4956698;28;23119;-70
2021/12/14 04:57:18;;;;;;;7.53;6.20;;;4.00;96.70;;;;;;4951331;28;20054;-70
2021/12/14 04:59:49;;;;;;;9.10;6.22;;;4.00;96.70;;;;;;4951915;28;20083;-70
2021/12/14 05:02:22;;;;;;;8.13;5.47;;;4.00;96.70;;;;;;4952302;28;20580;-70
2021/12/14 05:05:09;;;;;;;8.02;5.40;;;3.90;96.70;;;;;;4954434;28;20053;-70
2021/12/14 05:10:18;;;;;;;6.70;4.88;;;3.90;96.70;;;;;;4954603;28;20145;-70
2021/12/14 05:12:57;;;;;;;7.10;5.22;;;3.90;96.70;;;;;;4950825;28;20513;-70
2021/12/14 05:15:31;;;;;;;7.88;5.80;;;3.90;96.70;;;;;;4958003;28;20549;-70
2021/12/14 05:17:59;;;;;;;7.53;5.07;;;3.90;96.70;;;;;;4953873;28;20059;-70
2021/12/14 05:20:30;;;;;;;9.95;6.00;;;3.80;96.70;;;;;;4952008;28;20082;-70
2021/12/14 05:23:01;;;;;;;10.38;6.28;;;3.60;96.70;;;;;;4954702;28;20042;-70
2021/12/14 05:25:31;;;;;;;8.15;5.88;;;3.50;96.70;;;;;;4954464;28;20169;-70
2021/12/14 05:28:09;;;;;;;8.85;5.95;;;3.50;96.70;;;;;;4949284;28;20043;-70
2021/12/14 05:30:44;;;;;;;8.03;5.57;;;3.60;96.70;;;;;;4953051;28;20070;-70
2021/12/14 05:33:21;;;;;;;8.15;5.60;;;3.60;96.70;;;;;;4950618;28;20043;-70
2021/12/14 05:35:53;;;;;;;8.27;6.18;;;3.50;96.70;;;;;;4950407;28;20043;-70
2021/12/14 05:38:39;;;;;;;9.93;5.75;;;3.60;96.70;;;;;;4951398;28;20047;-70
2021/12/14 05:44:15;;;;;;;8.38;5.93;;;3.50;96.70;;;;;;4946942;28;20095;-70
2021/12/14 05:46:50;;;;;;;7.00;5.70;;;3.40;96.70;;;;;;4954781;28;20043;-70
2021/12/14 05:49:30;;;;;;;6.97;5.05;;;3.40;96.70;;;;;;4965318;28;20162;-70
2021/12/14 05:52:07;;;;;;;8.48;5.20;;;3.50;96.70;;;;;;4948810;28;20054;-70
2021/12/14 05:54:36;;;;;;;6.50;4.75;;;3.50;96.70;;;;;;4952804;28;20043;-70
2021/12/14 05:57:12;;;;;;;7.38;5.43;;;3.60;96.70;;;;;;4953074;28;20050;-70
2021/12/14 05:59:41;;;;;;;6.97;5.55;;;3.60;96.70;;;;;;4950971;28;20047;-70
2021/12/14 06:02:11;;;;;;;8.10;6.22;;;3.70;96.70;;;;;;4952902;28;20153;-70
2021/12/14 06:04:48;;;;;;;7.70;5.93;;;3.60;96.70;;;;;;4949656;28;20043;-70
2021/12/14 06:07:17;;;;;;;8.55;6.70;;;3.60;96.70;;;;;;4956327;28;20715;-70
2021/12/14 06:09:51;;;;;;;10.55;7.28;;;3.50;96.70;;;;;;4929673;28;20043;-70
2021/12/14 06:12:36;;;;;;;11.65;7.10;;;3.30;96.70;;;;;;4938768;28;20057;-70
2021/12/14 06:15:14;;;;;;;8.65;6.90;;;3.30;96.70;;;;;;4952197;28;20121;-70
2021/12/14 06:17:42;;;;;;;12.50;7.07;;;3.30;96.70;;;;;;4952112;28;20054;-70
2021/12/14 06:20:33;;;;;;;11.57;7.00;;;3.30;96.70;;;;;;4955490;28;20081;-70
2021/12/14 06:23:03;;;;;;;11.82;8.07;;;3.30;96.70;;;;;;4953385;28;20058;-70
2021/12/14 06:26:00;;;;;;;;;;;3.40;96.70;;;;;;4948635;28;20362;-70
2021/12/14 06:28:29;;;;;;;9.82;6.80;;;3.30;96.70;;;;;;4956727;28;19929;-70
2021/12/14 06:31:02;;;;;;;9.73;6.82;;;3.20;96.70;;;;;;4948331;28;20132;-70
2021/12/14 06:33:33;;;;;;;10.63;7.53;;;3.10;96.70;;;;;;4950549;28;20047;-69
2021/12/14 06:36:09;;;;;;;9.15;6.32;;;3.10;96.70;;;;;;4952164;28;20146;-70
2021/12/14 06:38:37;;;;;;;;;;;3.10;96.70;;;;;;4950951;28;20047;-70
2021/12/14 06:41:13;;;;;;;9.20;6.80;;;3.20;96.70;;;;;;4954292;28;19930;-70
2021/12/14 06:43:49;;;;;;;13.82;8.88;;;3.20;96.70;;;;;;4933335;28;20054;-70
2021/12/14 06:46:23;;;;;;;19.88;10.80;;;3.20;96.70;;;;;;4950983;28;20149;-70
2021/12/14 06:48:54;;;;;;;20.15;12.05;;;3.20;96.70;;;;;;4942664;28;20065;-70
2021/12/14 06:51:25;;;;;;;21.95;14.57;;;3.20;96.70;;;;;;4955928;28;20057;-70
2021/12/14 06:54:07;;;;;;;21.27;13.05;;;3.30;96.70;;;;;;4952303;28;20057;-70
2021/12/14 06:57:04;;;;;;;15.90;9.75;;;3.30;96.70;;;;;;4917697;29;20056;-70
2021/12/14 06:59:59;;;;;;;14.68;9.73;;;3.30;96.70;;;;;;4894487;29;20729;-70
2021/12/14 07:02:48;;;;;;;11.65;7.80;;;3.30;96.70;;;;;;4888969;29;20071;-70
2021/12/14 07:05:50;;;;;;;16.90;8.30;;;3.30;96.70;;;;;;4856847;29;20511;-70
2021/12/14 07:08:24;;;;;;;13.20;7.50;;;3.20;96.70;;;;;;4842428;29;20178;-70
2021/12/14 07:10:54;;;;;;;11.82;8.02;;;3.20;96.70;;;;;;4846718;29;20500;-70
2021/12/14 07:13:27;;;;;;;16.38;8.98;;;3.30;96.70;;;;;;4846520;29;20082;-70
2021/12/14 07:15:57;;;;;;;16.63;8.60;;;3.30;96.70;;;;;;4825896;29;20586;-70
2021/12/14 07:18:29;;;;;;;11.70;8.05;;;3.30;96.70;;;;;;4856441;29;20059;-70
2021/12/14 07:20:58;;;;;;;11.30;7.00;;;3.30;96.70;;;;;;4854888;29;20160;-70
2021/12/14 07:23:28;;;;;;;12.57;8.13;;;3.30;96.70;;;;;;4844835;29;20320;-70
2021/12/14 07:26:00;;;;;;;11.57;8.05;;;3.30;96.70;;;;;;4845851;29;20057;-70
2021/12/14 07:28:33;;;;;;;11.73;7.68;;;3.30;96.70;;;;;;4845407;29;20293;-70
2021/12/14 07:31:10;;;;;;;14.13;7.65;;;3.30;96.70;;;;;;4855034;29;20083;-70
2021/12/14 07:33:45;;;;;;;10.60;7.28;;;3.30;96.70;;;;;;4868097;29;20171;-71
2021/12/14 07:36:19;;;;;;;11.55;7.10;;;3.30;96.70;;;;;;4847493;29;20109;-70
2021/12/14 07:38:49;;;;;;;11.68;7.80;;;3.20;96.70;;;;;;4885176;29;20566;-71
2021/12/14 07:41:25;;;;;;;10.30;6.75;;;3.30;96.70;;;;;;4897873;28;20568;-71
2021/12/14 07:43:58;;;;;;;12.15;7.97;;;3.40;96.70;;;;;;4949006;28;20043;-71
2021/12/14 07:46:33;;;;;;;12.00;8.07;;;3.40;96.70;;;;;;4947972;28;20079;-70
2021/12/14 07:49:05;;;;;;;10.82;7.45;;;3.50;96.70;;;;;;4950741;28;20528;-71
2021/12/14 07:51:37;;;;;;;11.77;7.75;;;3.40;96.70;;;;;;4946041;28;20031;-71
2021/12/14 07:54:10;;;;;;;10.55;7.32;;;3.50;96.70;;;;;;4948011;28;20294;-72
2021/12/14 07:56:42;;;;;;;12.30;8.15;;;3.60;96.70;;;;;;4950437;28;20039;-70
2021/12/14 07:59:22;;;;;;;11.52;7.10;;;3.60;96.70;;;;;;4956750;28;20133;-70
2021/12/14 08:02:05;;;;;;;11.75;7.65;;;3.60;96.70;;;;;;4954400;28;20076;-69
2021/12/14 08:04:36;;;;;;;13.25;7.90;;;3.50;96.70;;;;;;4947143;28;20492;-70
2021/12/14 08:07:05;;;;;;;13.07;7.68;;;3.50;96.70;;;;;;4955106;28;20135;-69
2021/12/14 08:09:49;;;;;;;12.90;7.95;;;3.50;96.70;;;;;;4952974;28;20914;-69
2021/12/14 08:12:30;;;;;;;16.48;8.93;;;3.50;96.70;;;;;;4949968;28;20502;-70
2021/12/14 08:15:07;;;;;;;17.83;11.63;;;3.60;96.70;;;;;;4951466;28;20058;-70
2021/12/14 08:17:36;;;;;;;20.08;13.10;;;3.80;96.70;;;;;;4955477;28;20050;-70
2021/12/14 08:20:09;;;;;;;24.45;14.88;;;3.90;96.70;;;;;;4953006;28;20122;-72
2021/12/14 08:22:54;;;;;;;29.30;18.95;;;4.00;96.70;;;;;;4953118;28;20421;-69
2021/12/14 08:25:26;;;;;;;36.72;22.65;;;4.10;96.70;;;;;;4949500;28;20043;-70
2021/12/14 08:28:03;;;;;;;39.38;24.10;;;4.10;96.70;;;;;;4952494;28;20042;-69
2021/12/14 08:30:33;;;;;;;30.67;18.08;;;4.10;96.70;;;;;;4957105;28;20069;-69
2021/12/14 08:33:02;;;;;;;27.15;16.10;;;4.20;96.70;;;;;;4952919;28;20067;-69
2021/12/14 08:35:32;;;;;;;21.60;14.80;;;4.20;96.70;;;;;;4952242;28;20072;-69
2021/12/14 08:38:03;;;;;;;24.52;14.90;;;4.20;96.70;;;;;;4954401;28;20631;-70
2021/12/14 08:40:37;;;;;;;20.13;12.43;;;4.30;96.70;;;;;;4953814;28;20050;-69
2021/12/14 08:43:22;;;;;;;12.27;9.75;;;4.40;96.70;;;;;;4957099;28;20039;-70
2021/12/14 08:45:54;;;;;;;23.67;14.32;;;4.50;96.70;;;;;;4955711;28;20140;-69
2021/12/14 08:48:30;;;;;;;18.23;10.98;;;4.50;96.70;;;;;;4957995;28;20493;-69
2021/12/14 08:51:04;;;;;;;19.80;12.88;;;4.60;96.70;;;;;;4955883;28;20039;-69
2021/12/14 08:53:35;;;;;;;14.68;10.13;;;4.70;96.70;;;;;;4949106;28;20039;-69
2021/12/14 08:56:07;;;;;;;13.02;9.23;;;4.70;96.70;;;;;;4952440;28;20046;-69
2021/12/14 08:58:35;;;;;;;15.32;10.65;;;4.90;96.70;;;;;;4954924;28;20053;-69
2021/12/14 09:01:11;;;;;;;37.88;21.95;;;4.90;96.70;;;;;;4955459;28;20094;-69
2021/12/14 09:03:45;;;;;;;31.98;18.25;;;4.90;96.70;;;;;;4956703;28;20046;-69
2021/12/14 09:06:19;;;;;;;36.22;20.05;;;5.00;96.70;;;;;;4955379;28;20046;-69
2021/12/14 09:08:51;;;;;;;33.30;19.63;;;5.10;96.70;;;;;;4956112;28;20050;-69
2021/12/14 09:11:22;;;;;;;38.60;23.10;;;5.20;96.70;;;;;;4953542;28;20520;-69
2021/12/14 09:13:52;;;;;;;50.30;25.67;;;5.40;96.70;;;;;;4937172;28;20528;-69
2021/12/14 09:16:22;;;;;;;35.83;21.65;;;5.40;96.70;;;;;;4974235;28;20051;-69
2021/12/14 09:18:53;;;;;;;24.63;15.77;;;5.50;96.70;;;;;;4947467;28;20137;-69
2021/12/14 09:21:28;;;;;;;20.40;12.55;;;5.50;96.70;;;;;;4976097;28;20408;-69
2021/12/14 09:23:59;;;;;;;20.00;12.23;;;5.50;96.70;;;;;;4973497;28;20047;-70
2021/12/14 09:26:31;;;;;;;19.75;11.70;;;5.60;96.70;;;;;;4977338;28;20045;-69
2021/12/14 09:28:59;;;;;;;16.27;11.18;;;5.80;96.70;;;;;;4959059;28;20593;-69
2021/12/14 09:31:37;;;;;;;14.50;10.80;;;5.90;96.70;;;;;;4958424;28;20548;-69
2021/12/14 09:34:09;;;;;;;16.73;10.93;;;6.00;96.70;;;;;;4952099;28;20405;-70
2021/12/14 09:36:39;;;;;;;13.55;10.25;;;6.00;96.70;;;;;;4972669;28;20125;-69
2021/12/14 09:39:11;;;;;;;10.70;8.50;;;6.00;96.70;;;;;;4954654;28;20634;-72
2021/12/14 09:41:42;;;;;;;12.15;8.18;;;6.10;96.70;;;;;;4975834;28;20046;-69
2021/12/14 09:44:13;;;;;;;10.63;7.75;;;6.10;96.70;;;;;;4957632;28;20046;-69
2021/12/14 09:46:42;;;;;;;10.52;7.60;;;6.10;96.70;;;;;;4973878;28;20402;-69
2021/12/14 09:49:12;;;;;;;8.55;7.38;;;6.30;96.70;;;;;;4974559;28;20047;-70
2021/12/14 09:51:46;;;;;;;11.13;6.95;;;6.40;96.70;;;;;;4974370;28;20051;-69
2021/12/14 09:54:18;;;;;;;9.98;6.93;;;6.60;96.70;;;;;;4960388;28;20492;-70
2021/12/14 09:56:51;;;;;;;14.10;9.57;;;6.70;96.70;;;;;;4970544;28;20046;-70
2021/12/14 09:59:20;;;;;;;11.18;7.53;;;6.90;96.70;;;;;;4969019;28;20047;-70
2021/12/14 10:01:53;;;;;;;9.93;8.13;;;6.90;96.70;;;;;;4972184;28;20042;-70
2021/12/14 10:04:25;;;;;;;8.48;6.57;;;7.10;96.70;;;;;;4974181;28;20143;-70
2021/12/14 10:06:57;;;;;;;8.48;7.00;;;7.10;96.70;;;;;;4956742;28;20149;-70
2021/12/14 10:09:27;;;;;;;7.85;6.10;;;7.10;96.70;;;;;;4976198;28;20039;-70
2021/12/14 10:12:15;;;;;;;7.70;5.50;;;7.20;96.70;;;;;;4955310;28;20477;-70
2021/12/14 10:14:47;;;;;;;6.63;5.18;;;7.20;96.70;;;;;;4969408;28;20061;-70
2021/12/14 10:17:18;;;;;;;7.05;5.00;;;7.30;96.70;;;;;;4957258;28;20042;-69
2021/12/14 10:19:48;;;;;;;5.50;4.82;;;7.40;96.70;;;;;;4972330;28;20046;-70
2021/12/14 10:22:25;;;;;;;5.82;4.43;;;7.50;96.70;;;;;;4954296;28;20589;-69
2021/12/14 10:24:53;;;;;;;;;;;7.60;96.70;;;;;;4942063;28;20412;-70
2021/12/14 10:27:23;;;;;;;6.03;4.38;;;7.60;96.70;;;;;;4974205;28;20482;-69
2021/12/14 10:29:54;;;;;;;7.47;5.28;;;7.70;96.70;;;;;;4981988;28;20120;-69
2021/12/14 10:32:29;;;;;;;8.98;6.38;;;7.80;96.70;;;;;;4971340;28;20161;-69
2021/12/14 10:35:01;;;;;;;6.75;5.40;;;8.00;96.70;;;;;;4970208;28;20532;-69
2021/12/14 10:37:51;;;;;;;9.85;6.85;;;8.10;96.70;;;;;;4940937;28;20480;-69
2021/12/14 10:43:17;;;;;;;10.15;6.95;;;8.20;96.70;;;;;;4973759;28;20153;-69
2021/12/14 10:45:50;;;;;;;9.45;7.53;;;8.30;96.70;;;;;;4957036;28;20439;-69
2021/12/14 10:48:22;;;;;;;10.00;7.85;;;8.40;96.70;;;;;;4969616;28;20047;-69
2021/12/14 10:50:52;;;;;;;12.65;7.78;;;8.40;96.70;;;;;;4968569;28;20524;-69
2021/12/14 10:53:24;;;;;;;10.38;7.22;;;8.40;96.70;;;;;;4955461;28;20054;-69
2021/12/14 10:55:56;;;;;;;8.20;6.90;;;8.50;96.70;;;;;;4967825;28;20134;-69
2021/12/14 10:58:28;;;;;;;10.38;7.75;;;8.60;96.70;;;;;;4969847;28;20046;-69
2021/12/14 11:00:59;;;;;;;9.30;7.10;;;8.60;96.70;;;;;;4977253;28;20136;-68
2021/12/14 11:03:35;;;;;;;10.18;7.80;;;8.70;96.70;;;;;;4972467;28;20149;-69
2021/12/14 11:06:11;;;;;;;9.15;7.32;;;8.80;96.70;;;;;;4955983;28;20042;-69
2021/12/14 11:11:32;;;;;;;9.85;7.45;;;9.00;96.70;;;;;;4974499;28;20042;-69
2021/12/14 11:14:06;;;;;;;10.55;6.93;;;9.00;96.70;;;;;;4950897;28;20513;-69
2021/12/14 11:19:33;;;;;;;10.68;8.13;;;9.30;96.70;;;;;;4971823;28;20129;-69
2021/12/14 11:22:16;;;;;;;8.77;7.28;;;9.30;96.70;;;;;;4947187;28;20057;-69
2021/12/14 11:24:50;;;;;;;10.60;7.80;;;9.50;96.70;;;;;;4971146;28;20038;-69
2021/12/14 11:27:23;;;;;;;12.82;9.55;;;9.70;96.70;;;;;;4971542;28;20034;-70
2021/12/14 11:30:05;;;;;;;10.55;8.32;;;9.80;96.70;;;;;;4975634;28;20443;-69
2021/12/14 11:32:33;;;;;;;9.32;7.38;;;9.90;96.70;;;;;;4972410;28;20046;-69
2021/12/14 11:35:13;;;;;;;10.38;7.43;;;10.10;96.70;;;;;;4972637;28;20097;-69
2021/12/14 11:37:41;;;;;;;9.68;7.57;;;10.10;96.70;;;;;;4966590;28;20138;-69
2021/12/14 11:40:15;;;;;;;9.45;8.10;;;10.10;96.70;;;;;;4970462;28;20050;-69
2021/12/14 11:42:43;;;;;;;9.90;7.70;;;10.30;96.70;;;;;;4974248;28;20139;-69
2021/12/14 11:45:16;;;;;;;11.23;8.38;;;10.40;96.70;;;;;;4969915;28;20043;-69
2021/12/14 11:47:49;;;;;;;11.20;8.63;;;10.50;96.70;;;;;;4969640;28;20038;-70
2021/12/14 11:50:27;;;;;;;10.68;8.02;;;10.50;96.70;;;;;;4976032;28;20460;-69
2021/12/14 11:52:57;;;;;;;11.27;7.95;;;10.60;96.70;;;;;;4957716;28;20054;-69
2021/12/14 11:55:40;;;;;;;12.38;8.70;;;10.60;96.70;;;;;;4974872;28;20030;-70
2021/12/14 11:58:16;;;;;;;9.50;8.50;;;10.70;96.70;;;;;;4953439;28;20567;-70
2021/12/14 12:00:50;;;;;;;;;;;10.80;96.70;;;;;;4975901;28;20054;-70
2021/12/14 12:03:27;;;;;;;10.15;7.20;;;11.00;96.70;;;;;;4974074;28;19926;-70
2021/12/14 12:06:07;;;;;;;12.05;8.65;;;11.20;96.70;;;;;;4972836;28;20031;-70
2021/12/14 12:11:36;;;;;;;12.70;7.57;;;11.40;96.70;;;;;;4971326;28;20097;-69
2021/12/14 12:14:18;;;;;;;9.90;7.00;;;11.40;96.70;;;;;;4973969;28;20386;-70
2021/12/14 12:16:47;;;;;;;11.43;7.07;;;11.50;96.70;;;;;;4971785;28;20390;-69
2021/12/14 12:19:18;;;;;;;9.98;6.85;;;11.50;96.70;;;;;;4971709;28;20256;-70
2021/12/14 12:21:49;;;;;;;9.32;7.00;;;11.60;96.70;;;;;;4974157;28;20543;-70
2021/12/14 12:24:45;;;;;;;10.13;7.32;;;11.80;96.70;;;;;;4974358;28;20076;-70
2021/12/14 12:27:41;;;;;;;8.20;6.78;;;11.80;96.70;;;;;;4975412;28;20852;-69
2021/12/14 12:30:41;;;;;;;9.50;6.60;;;11.90;96.70;;;;;;4956635;28;20065;-70
2021/12/14 12:33:18;;;;;;;7.82;6.07;;;12.00;96.70;;;;;;4974345;28;20038;-69
2021/12/14 12:35:49;;;;;;;11.27;7.88;;;12.20;96.70;;;;;;4974322;28;20046;-69
2021/12/14 12:38:34;;;;;;;11.07;8.10;;;12.40;96.70;;;;;;4955949;28;20420;-70
2021/12/14 12:41:08;;;;;;;9.27;8.25;;;12.40;96.70;;;;;;4949643;28;20054;-70
2021/12/14 12:43:43;;;;;;;9.55;8.05;;;12.40;96.70;;;;;;4956564;28;20066;-70
2021/12/14 12:46:17;;;;;;;10.05;8.15;;;12.40;96.70;;;;;;4974790;28;20125;-69
2021/12/14 12:48:52;;;;;;;11.38;8.15;;;12.50;96.70;;;;;;4974022;28;20043;-69
2021/12/14 12:51:42;;;;;;;9.75;8.35;;;12.70;96.70;;;;;;4976568;28;20450;-69
2021/12/14 12:54:13;;;;;;;8.93;7.55;;;12.80;96.70;;;;;;4956854;28;20047;-69
2021/12/14 12:56:42;;;;;;;10.95;8.30;;;12.90;96.70;;;;;;4976238;28;20128;-69
2021/12/14 12:59:15;;;;;;;10.57;7.88;;;13.00;96.70;;;;;;4968443;28;20034;-69
2021/12/14 13:01:43;;;;;;;12.40;11.07;;;13.00;96.70;;;;;;4973564;28;20141;-69
2021/12/14 13:04:38;;;;;;;11.77;9.30;;;12.90;96.70;;;;;;4945393;28;20070;-69
2021/12/14 13:07:06;;;;;;;9.90;7.90;;;12.80;96.70;;;;;;4975313;28;20509;-69
2021/12/14 13:10:03;;;;;;;12.02;8.98;;;12.90;96.70;;;;;;4971261;28;20433;-69
2021/12/14 13:12:41;;;;;;;10.40;7.35;;;12.90;96.70;;;;;;4971395;28;20042;-69
2021/12/14 13:15:47;;;;;;;12.07;8.70;;;12.90;96.70;;;;;;4972763;28;20671;-69
2021/12/14 13:18:45;;;;;;;11.95;8.50;;;12.80;96.70;;;;;;4978602;28;20484;-69
2021/12/14 13:21:29;;;;;;;9.80;7.63;;;12.80;96.70;;;;;;4973993;28;20097;-69
2021/12/14 13:24:04;;;;;;;12.45;7.72;;;12.70;96.70;;;;;;4973150;28;20074;-70
2021/12/14 13:26:52;;;;;;;10.88;8.68;;;12.50;96.70;;;;;;4972080;28;20045;-70
2021/12/14 13:29:38;;;;;;;9.10;7.10;;;12.40;96.70;;;;;;4968440;28;20051;-69
2021/12/14 13:32:15;;;;;;;8.27;7.23;;;12.40;96.70;;;;;;4967223;28;20051;-69
2021/12/14 13:34:49;;;;;;;10.38;6.30;;;12.30;96.70;;;;;;4958771;28;20042;-69
2021/12/14 13:37:21;;;;;;;8.48;5.90;;;12.20;96.70;;;;;;4954359;28;20049;-69
2021/12/14 13:39:50;;;;;;;8.07;6.72;;;12.10;96.70;;;;;;4977247;28;20073;-69
2021/12/14 13:42:44;;;;;;;8.93;6.82;;;12.10;96.70;;;;;;4955333;28;20061;-69
2021/12/14 13:45:20;;;;;;;11.48;7.32;;;12.10;96.70;;;;;;4977458;28;20451;-69
2021/12/14 13:47:50;;;;;;;10.43;6.53;;;12.10;96.70;;;;;;4972132;28;20098;-69
2021/12/14 13:50:24;;;;;;;7.85;5.82;;;12.10;96.70;;;;;;4971773;28;20563;-69
2021/12/14 13:52:55;;;;;;;6.82;5.95;;;12.10;96.70;;;;;;4960133;28;20090;-69
2021/12/14 13:55:30;;;;;;;9.70;6.53;;;12.10;96.70;;;;;;4962246;28;20042;-69
2021/12/14 13:58:04;;;;;;;9.95;5.90;;;12.10;96.70;;;;;;4968635;28;20077;-69
2021/12/14 14:00:38;;;;;;;8.45;6.68;;;12.00;96.70;;;;;;4960173;28;20080;-69